Aviation Digital Data Service (ADDS)

Output produced by METARs form (2343 UTC 20 January 2019)
found at http://www.aviationweather.gov/metar/data/
 
METAR text: OPKC 202155Z 09005KT 5000 TSRA FEW025CB SCT030 BKN100 16/14 Q1014 TEMPO TSRA FEW025CB
Conditions at: OPKC (KARACHI INTL ARP, PK) observed 2155 UTC 20 January 2019
Temperature: 16.0°C (61°F)
Dewpoint: 14.0°C (57°F) [RH = 88%]
Pressure (altimeter): 29.94 inches Hg (1014.0 mb)
Winds: from the E (90 degrees) at 6 MPH (5 knots; 2.6 m/s)
Visibility: 3 miles ( 5 km)
Ceiling: 10000 feet AGL
Clouds: few clouds at 2500 feet AGL
scattered clouds at 3000 feet AGL
broken clouds at 10000 feet AGL
Weather: TSRA  (rain associated with thunderstorm(s))

METAR text: OPKC 202125Z 07007KT 5000 -TSRA FEW025CB SCT030 BKN100 16/14 Q1014 TEMPO TSRA FEW025CB
Conditions at: OPKC (KARACHI INTL ARP, PK) observed 2125 UTC 20 January 2019
Temperature: 16.0°C (61°F)
Dewpoint: 14.0°C (57°F) [RH = 88%]
Pressure (altimeter): 29.94 inches Hg (1014.0 mb)
Winds: from the ENE (70 degrees) at 8 MPH (7 knots; 3.6 m/s)
Visibility: 3 miles ( 5 km)
Ceiling: 10000 feet AGL
Clouds: few clouds at 2500 feet AGL
scattered clouds at 3000 feet AGL
broken clouds at 10000 feet AGL
Weather: -TSRA  (light rain associated with thunderstorm(s))

METAR text: OPKC 202055Z 02009KT 5000 TSRA FEW025CB SCT030 BKN100 16/14 Q1013 TEMPO TSRA FEW025CB
Conditions at: OPKC (KARACHI INTL ARP, PK) observed 2055 UTC 20 January 2019
Temperature: 16.0°C (61°F)
Dewpoint: 14.0°C (57°F) [RH = 88%]
Pressure (altimeter): 29.91 inches Hg (1013.0 mb)
Winds: from the NNE (20 degrees) at 10 MPH (9 knots; 4.6 m/s)
Visibility: 3 miles ( 5 km)
Ceiling: 10000 feet AGL
Clouds: few clouds at 2500 feet AGL
scattered clouds at 3000 feet AGL
broken clouds at 10000 feet AGL
Weather: TSRA  (rain associated with thunderstorm(s))

METAR text: OPKC 202025Z 06006KT 4000 DZ SCT030 BKN100 17/15 Q1014 TEMPO TSRA FEW025CB
Conditions at: OPKC (KARACHI INTL ARP, PK) observed 2025 UTC 20 January 2019
Temperature: 17.0°C (63°F)
Dewpoint: 15.0°C (59°F) [RH = 88%]
Pressure (altimeter): 29.94 inches Hg (1014.0 mb)
Winds: from the ENE (60 degrees) at 7 MPH (6 knots; 3.1 m/s)
Visibility: 2.49 miles (4.01 km)
Ceiling: 10000 feet AGL
Clouds: scattered clouds at 3000 feet AGL
broken clouds at 10000 feet AGL
Weather: DZ  (moderate drizzle)

METAR text: OPKC 201955Z 09009KT 3000 TSRA FEW025CB SCT030 BKN090 17/15 Q1013 TEMPO TSRA FEW025CB
Conditions at: OPKC (KARACHI INTL ARP, PK) observed 1955 UTC 20 January 2019
Temperature: 17.0°C (63°F)
Dewpoint: 15.0°C (59°F) [RH = 88%]
Pressure (altimeter): 29.91 inches Hg (1013.0 mb)
Winds: from the E (90 degrees) at 10 MPH (9 knots; 4.6 m/s)
Visibility: 1.86 miles (2.99 km)
Ceiling: 9000 feet AGL
Clouds: few clouds at 2500 feet AGL
scattered clouds at 3000 feet AGL
broken clouds at 9000 feet AGL
Weather: TSRA  (rain associated with thunderstorm(s))

METAR text: OPKC 201925Z 07010KT 2000 TSRA FEW025CB SCT030 BKN080 17/15 Q1014 TEMPO TSRA FEW025CB
Conditions at: OPKC (KARACHI INTL ARP, PK) observed 1925 UTC 20 January 2019
Temperature: 17.0°C (63°F)
Dewpoint: 15.0°C (59°F) [RH = 88%]
Pressure (altimeter): 29.94 inches Hg (1014.0 mb)
Winds: from the ENE (70 degrees) at 12 MPH (10 knots; 5.1 m/s)
Visibility: 1.24 miles (2.00 km)
Ceiling: 8000 feet AGL
Clouds: few clouds at 2500 feet AGL
scattered clouds at 3000 feet AGL
broken clouds at 8000 feet AGL
Weather: TSRA  (rain associated with thunderstorm(s))

METAR text: OPKC 201855Z 04013KT 3000 TSSHRA FEW025CB SCT030 BKN080 18/14 Q1014 TEMPO TSSRA FEW025CB
Conditions at: OPKC (KARACHI INTL ARP, PK) observed 1855 UTC 20 January 2019
Temperature: 18.0°C (64°F)
Dewpoint: 14.0°C (57°F) [RH = 77%]
Pressure (altimeter): 29.94 inches Hg (1014.0 mb)
Winds: from the NE (40 degrees) at 15 MPH (13 knots; 6.7 m/s)
Visibility: 1.86 miles (2.99 km)
Ceiling: 8000 feet AGL
Clouds: few clouds at 2500 feet AGL
scattered clouds at 3000 feet AGL
broken clouds at 8000 feet AGL
Weather: SHRA TS  (rain showers, thunderstorm)

METAR text: OPKC 201825Z 15005KT 5000 TSDZ FEW025CB SCT030 BKN100 22/18 Q1014 TEMPO TSRA FEW025CB
Conditions at: OPKC (KARACHI INTL ARP, PK) observed 1825 UTC 20 January 2019
Temperature: 22.0°C (72°F)
Dewpoint: 18.0°C (64°F) [RH = 78%]
Pressure (altimeter): 29.94 inches Hg (1014.0 mb)
Winds: from the SSE (150 degrees) at 6 MPH (5 knots; 2.6 m/s)
Visibility: 3 miles ( 5 km)
Ceiling: 10000 feet AGL
Clouds: few clouds at 2500 feet AGL
scattered clouds at 3000 feet AGL
broken clouds at 10000 feet AGL
Weather: TSDZ  (unknown weather)

METAR text: OPKC 201655Z 22007KT 5000 DZ SCT030 BKN100 23/17 Q1015 TEMPO TSRA FEW025CB
Conditions at: OPKC (KARACHI INTL ARP, PK) observed 1655 UTC 20 January 2019
Temperature: 23.0°C (73°F)
Dewpoint: 17.0°C (63°F) [RH = 69%]
Pressure (altimeter): 29.97 inches Hg (1015.0 mb)
Winds: from the SW (220 degrees) at 8 MPH (7 knots; 3.6 m/s)
Visibility: 3 miles ( 5 km)
Ceiling: 10000 feet AGL
Clouds: scattered clouds at 3000 feet AGL
broken clouds at 10000 feet AGL
Weather: DZ  (moderate drizzle)

METAR text: OPKC 201625Z 20006KT 5000 FU SCT030 BKN100 23/17 Q1014 NOSIG
Conditions at: OPKC (KARACHI INTL ARP, PK) observed 1625 UTC 20 January 2019
Temperature: 23.0°C (73°F)
Dewpoint: 17.0°C (63°F) [RH = 69%]
Pressure (altimeter): 29.94 inches Hg (1014.0 mb)
Winds: from the SSW (200 degrees) at 7 MPH (6 knots; 3.1 m/s)
Visibility: 3 miles ( 5 km)
Ceiling: 10000 feet AGL
Clouds: scattered clouds at 3000 feet AGL
broken clouds at 10000 feet AGL
Weather: FU  (smoke)

METAR text: OPKC 201555Z 25004KT 4000 FU SCT030 BKN100 23/17 Q1014 NOSIG
Conditions at: OPKC (KARACHI INTL ARP, PK) observed 1555 UTC 20 January 2019
Temperature: 23.0°C (73°F)
Dewpoint: 17.0°C (63°F) [RH = 69%]
Pressure (altimeter): 29.94 inches Hg (1014.0 mb)
Winds: from the WSW (250 degrees) at 5 MPH (4 knots; 2.1 m/s)
Visibility: 2.49 miles (4.01 km)
Ceiling: 10000 feet AGL
Clouds: scattered clouds at 3000 feet AGL
broken clouds at 10000 feet AGL
Weather: FU  (smoke)

METAR text: OPKC 201455Z 21008KT 3000 -DZ SCT030 BKN100 23/16 Q1014 NOSIG
Conditions at: OPKC (KARACHI INTL ARP, PK) observed 1455 UTC 20 January 2019
Temperature: 23.0°C (73°F)
Dewpoint: 16.0°C (61°F) [RH = 65%]
Pressure (altimeter): 29.94 inches Hg (1014.0 mb)
Winds: from the SSW (210 degrees) at 9 MPH (8 knots; 4.1 m/s)
Visibility: 1.86 miles (2.99 km)
Ceiling: 10000 feet AGL
Clouds: scattered clouds at 3000 feet AGL
broken clouds at 10000 feet AGL
Weather: -DZ  (light drizzle)

METAR text: OPKC 201425Z 20013KT 3000 FU BKN100 23/16 Q1013 NOSIG
Conditions at: OPKC (KARACHI INTL ARP, PK) observed 1425 UTC 20 January 2019
Temperature: 23.0°C (73°F)
Dewpoint: 16.0°C (61°F) [RH = 65%]
Pressure (altimeter): 29.91 inches Hg (1013.0 mb)
Winds: from the SSW (200 degrees) at 15 MPH (13 knots; 6.7 m/s)
Visibility: 1.86 miles (2.99 km)
Ceiling: 10000 feet AGL
Clouds: broken clouds at 10000 feet AGL
Weather: FU  (smoke)

METAR text: OPKC 201325Z 29006KT 2000 FU BKN100 23/16 Q1013 TEMPO 1000 FU
Conditions at: OPKC (KARACHI INTL ARP, PK) observed 1325 UTC 20 January 2019
Temperature: 23.0°C (73°F)
Dewpoint: 16.0°C (61°F) [RH = 65%]
Pressure (altimeter): 29.91 inches Hg (1013.0 mb)
Winds: from the WNW (290 degrees) at 7 MPH (6 knots; 3.1 m/s)
Visibility: 1.24 miles (2.00 km)
Ceiling: 10000 feet AGL
Clouds: broken clouds at 10000 feet AGL
Weather: FU  (smoke)

METAR text: OPKC 201255Z 21008KT 1200 FU BKN100 23/16 Q1013 TEMPO 1000 FU
Conditions at: OPKC (KARACHI INTL ARP, PK) observed 1255 UTC 20 January 2019
Temperature: 23.0°C (73°F)
Dewpoint: 16.0°C (61°F) [RH = 65%]
Pressure (altimeter): 29.91 inches Hg (1013.0 mb)
Winds: from the SSW (210 degrees) at 9 MPH (8 knots; 4.1 m/s)
Visibility: 0.75 miles (1.21 km)
Ceiling: 10000 feet AGL
Clouds: broken clouds at 10000 feet AGL
Weather: FU  (smoke)

METAR text: OPKC 201225Z 24012KT 1500 BR NSC 23/16 Q1013 NOSIG
Conditions at: OPKC (KARACHI INTL ARP, PK) observed 1225 UTC 20 January 2019
Temperature: 23.0°C (73°F)
Dewpoint: 16.0°C (61°F) [RH = 65%]
Pressure (altimeter): 29.91 inches Hg (1013.0 mb)
Winds: from the WSW (240 degrees) at 14 MPH (12 knots; 6.2 m/s)
Visibility: 0.93 miles (1.50 km)
Ceiling: at least 12,000 feet AGL
Clouds: sky clear below 12,000 feet AGL
Weather: BR  (mist)

METAR text: OPKC 201155Z 23010KT 2000 HZ SCT100 24/15 Q1013 NOSIG
Conditions at: OPKC (KARACHI INTL ARP, PK) observed 1155 UTC 20 January 2019
Temperature: 24.0°C (75°F)
Dewpoint: 15.0°C (59°F) [RH = 57%]
Pressure (altimeter): 29.91 inches Hg (1013.0 mb)
Winds: from the SW (230 degrees) at 12 MPH (10 knots; 5.1 m/s)
Visibility: 1.24 miles (2.00 km)
Ceiling: at least 12,000 feet AGL
Clouds: scattered clouds at 10000 feet AGL
Weather: HZ  (haze)

METAR text: OPKC 201125Z 26010KT 3000 HZ NSC 24/14 Q1014 NOSIG
Conditions at: OPKC (KARACHI INTL ARP, PK) observed 1125 UTC 20 January 2019
Temperature: 24.0°C (75°F)
Dewpoint: 14.0°C (57°F) [RH = 54%]
Pressure (altimeter): 29.94 inches Hg (1014.0 mb)
Winds: from the W (260 degrees) at 12 MPH (10 knots; 5.1 m/s)
Visibility: 1.86 miles (2.99 km)
Ceiling: at least 12,000 feet AGL
Clouds: sky clear below 12,000 feet AGL
Weather: HZ  (haze)

METAR text: OPKC 201055Z 29009KT 3000 HZ NSC 25/14 Q1014 NOSIG
Conditions at: OPKC (KARACHI INTL ARP, PK) observed 1055 UTC 20 January 2019
Temperature: 25.0°C (77°F)
Dewpoint: 14.0°C (57°F) [RH = 50%]
Pressure (altimeter): 29.94 inches Hg (1014.0 mb)
Winds: from the WNW (290 degrees) at 10 MPH (9 knots; 4.6 m/s)
Visibility: 1.86 miles (2.99 km)
Ceiling: at least 12,000 feet AGL
Clouds: sky clear below 12,000 feet AGL
Weather: HZ  (haze)

METAR text: OPKC 201025Z 20010KT 3000 HZ NSC 25/14 Q1014 NOSIG
Conditions at: OPKC (KARACHI INTL ARP, PK) observed 1025 UTC 20 January 2019
Temperature: 25.0°C (77°F)
Dewpoint: 14.0°C (57°F) [RH = 50%]
Pressure (altimeter): 29.94 inches Hg (1014.0 mb)
Winds: from the SSW (200 degrees) at 12 MPH (10 knots; 5.1 m/s)
Visibility: 1.86 miles (2.99 km)
Ceiling: at least 12,000 feet AGL
Clouds: sky clear below 12,000 feet AGL
Weather: HZ  (haze)

METAR text: OPKC 200853Z 18007KT 2500 HZ NSC 25/13 Q1015 NOSIG
Conditions at: OPKC (KARACHI INTL ARP, PK) observed 0853 UTC 20 January 2019
Temperature: 25.0°C (77°F)
Dewpoint: 13.0°C (55°F) [RH = 47%]
Pressure (altimeter): 29.97 inches Hg (1015.0 mb)
Winds: from the S (180 degrees) at 8 MPH (7 knots; 3.6 m/s)
Visibility: 1.55 miles (2.49 km)
Ceiling: at least 12,000 feet AGL
Clouds: sky clear below 12,000 feet AGL
Weather: HZ  (haze)

METAR text: OPKC 200825Z 18003KT 2000 HZ NSC 25/13 Q1015 TEMPO BECMG 2500 HZ
Conditions at: OPKC (KARACHI INTL ARP, PK) observed 0825 UTC 20 January 2019
Temperature: 25.0°C (77°F)
Dewpoint: 13.0°C (55°F) [RH = 47%]
Pressure (altimeter): 29.97 inches Hg (1015.0 mb)
Winds: from the S (180 degrees) at 3 MPH (3 knots; 1.5 m/s)
Visibility: 1.24 miles (2.00 km)
Ceiling: at least 12,000 feet AGL
Clouds: sky clear below 12,000 feet AGL
Weather: HZ  (haze)

METAR text: OPKC 200755Z 22006KT 2000 HZ NSC 24/13 Q1016 TEMPO BECMG 2500 HZ
Conditions at: OPKC (KARACHI INTL ARP, PK) observed 0755 UTC 20 January 2019
Temperature: 24.0°C (75°F)
Dewpoint: 13.0°C (55°F) [RH = 50%]
Pressure (altimeter): 30.00 inches Hg (1016.0 mb)
Winds: from the SW (220 degrees) at 7 MPH (6 knots; 3.1 m/s)
Visibility: 1.24 miles (2.00 km)
Ceiling: at least 12,000 feet AGL
Clouds: sky clear below 12,000 feet AGL
Weather: HZ  (haze)

METAR text: OPKC 200725Z 26004KT 1500 HZ NSC 24/13 Q1017 TEMPO 1200 HZ
Conditions at: OPKC (KARACHI INTL ARP, PK) observed 0725 UTC 20 January 2019
Temperature: 24.0°C (75°F)
Dewpoint: 13.0°C (55°F) [RH = 50%]
Pressure (altimeter): 30.03 inches Hg (1017.0 mb)
Winds: from the W (260 degrees) at 5 MPH (4 knots; 2.1 m/s)
Visibility: 0.93 miles (1.50 km)
Ceiling: at least 12,000 feet AGL
Clouds: sky clear below 12,000 feet AGL
Weather: HZ  (haze)

METAR text: OPKC 200655Z 14003KT 1500 HZ NSC 24/12 Q1017 TEMPO 1200 HZ
Conditions at: OPKC (KARACHI INTL ARP, PK) observed 0655 UTC 20 January 2019
Temperature: 24.0°C (75°F)
Dewpoint: 12.0°C (54°F) [RH = 47%]
Pressure (altimeter): 30.03 inches Hg (1017.0 mb)
Winds: from the SE (140 degrees) at 3 MPH (3 knots; 1.5 m/s)
Visibility: 0.93 miles (1.50 km)
Ceiling: at least 12,000 feet AGL
Clouds: sky clear below 12,000 feet AGL
Weather: HZ  (haze)

METAR text: OPKC 200625Z 14004KT 1500 HZ NSC 23/11 Q1018 TEMPO 1200 HZ
Conditions at: OPKC (KARACHI INTL ARP, PK) observed 0625 UTC 20 January 2019
Temperature: 23.0°C (73°F)
Dewpoint: 11.0°C (52°F) [RH = 47%]
Pressure (altimeter): 30.06 inches Hg (1018.0 mb)
Winds: from the SE (140 degrees) at 5 MPH (4 knots; 2.1 m/s)
Visibility: 0.93 miles (1.50 km)
Ceiling: at least 12,000 feet AGL
Clouds: sky clear below 12,000 feet AGL
Weather: HZ  (haze)

METAR text: OPKC 200555Z 00000KT 1800 HZ NSC 22/10 Q1018 TEMPO 1800 HZ
Conditions at: OPKC (KARACHI INTL ARP, PK) observed 0555 UTC 20 January 2019
Temperature: 22.0°C (72°F)
Dewpoint: 10.0°C (50°F) [RH = 46%]
Pressure (altimeter): 30.06 inches Hg (1018.0 mb)
Winds: calm
Visibility: 1.12 miles (1.80 km)
Ceiling: at least 12,000 feet AGL
Clouds: sky clear below 12,000 feet AGL
Weather: HZ  (haze)

METAR text: OPKC 200525Z 00000KT 1800 HZ NSC 21/08 Q1018 TEMPO 1800 HZ
Conditions at: OPKC (KARACHI INTL ARP, PK) observed 0525 UTC 20 January 2019
Temperature: 21.0°C (70°F)
Dewpoint: 8.0°C (46°F) [RH = 43%]
Pressure (altimeter): 30.06 inches Hg (1018.0 mb)
Winds: calm
Visibility: 1.12 miles (1.80 km)
Ceiling: at least 12,000 feet AGL
Clouds: sky clear below 12,000 feet AGL
Weather: HZ  (haze)

METAR text: OPKC 200455Z 00000KT 1800 HZ NSC 20/07 Q1018 TEMPO 1500 HZ
Conditions at: OPKC (KARACHI INTL ARP, PK) observed 0455 UTC 20 January 2019
Temperature: 20.0°C (68°F)
Dewpoint: 7.0°C (45°F) [RH = 43%]
Pressure (altimeter): 30.06 inches Hg (1018.0 mb)
Winds: calm
Visibility: 1.12 miles (1.80 km)
Ceiling: at least 12,000 feet AGL
Clouds: sky clear below 12,000 feet AGL
Weather: HZ  (haze)

METAR text: OPKC 200425Z 04004KT 2000 HZ NSC 18/06 Q1018 NOSIG
Conditions at: OPKC (KARACHI INTL ARP, PK) observed 0425 UTC 20 January 2019
Temperature: 18.0°C (64°F)
Dewpoint: 6.0°C (43°F) [RH = 45%]
Pressure (altimeter): 30.06 inches Hg (1018.0 mb)
Winds: from the NE (40 degrees) at 5 MPH (4 knots; 2.1 m/s)
Visibility: 1.24 miles (2.00 km)
Ceiling: at least 12,000 feet AGL
Clouds: sky clear below 12,000 feet AGL
Weather: HZ  (haze)

METAR text: OPKC 200355Z 00000KT 2000 HZ NSC 17/06 Q1018 NOSIG
Conditions at: OPKC (KARACHI INTL ARP, PK) observed 0355 UTC 20 January 2019
Temperature: 17.0°C (63°F)
Dewpoint: 6.0°C (43°F) [RH = 48%]
Pressure (altimeter): 30.06 inches Hg (1018.0 mb)
Winds: calm
Visibility: 1.24 miles (2.00 km)
Ceiling: at least 12,000 feet AGL
Clouds: sky clear below 12,000 feet AGL
Weather: HZ  (haze)

METAR text: OPKC 200325Z 08006KT 2000 HZ NSC 15/06 Q1017 NOSIG
Conditions at: OPKC (KARACHI INTL ARP, PK) observed 0325 UTC 20 January 2019
Temperature: 15.0°C (59°F)
Dewpoint: 6.0°C (43°F) [RH = 55%]
Pressure (altimeter): 30.03 inches Hg (1017.0 mb)
Winds: from the E (80 degrees) at 7 MPH (6 knots; 3.1 m/s)
Visibility: 1.24 miles (2.00 km)
Ceiling: at least 12,000 feet AGL
Clouds: sky clear below 12,000 feet AGL
Weather: HZ  (haze)

METAR text: OPKC 200255Z 05007KT 2000 HZ NSC 14/05 Q1017 NOSIG
Conditions at: OPKC (KARACHI INTL ARP, PK) observed 0255 UTC 20 January 2019
Temperature: 14.0°C (57°F)
Dewpoint: 5.0°C (41°F) [RH = 55%]
Pressure (altimeter): 30.03 inches Hg (1017.0 mb)
Winds: from the NE (50 degrees) at 8 MPH (7 knots; 3.6 m/s)
Visibility: 1.24 miles (2.00 km)
Ceiling: at least 12,000 feet AGL
Clouds: sky clear below 12,000 feet AGL
Weather: HZ  (haze)

METAR text: OPKC 200225Z 05004KT 2000 HZ NSC 14/05 Q1017 NOSIG
Conditions at: OPKC (KARACHI INTL ARP, PK) observed 0225 UTC 20 January 2019
Temperature: 14.0°C (57°F)
Dewpoint: 5.0°C (41°F) [RH = 55%]
Pressure (altimeter): 30.03 inches Hg (1017.0 mb)
Winds: from the NE (50 degrees) at 5 MPH (4 knots; 2.1 m/s)
Visibility: 1.24 miles (2.00 km)
Ceiling: at least 12,000 feet AGL
Clouds: sky clear below 12,000 feet AGL
Weather: HZ  (haze)

METAR text: OPKC 200155Z 05005KT 4000 HZ NSC 14/05 Q1017 NOSIG
Conditions at: OPKC (KARACHI INTL ARP, PK) observed 0155 UTC 20 January 2019
Temperature: 14.0°C (57°F)
Dewpoint: 5.0°C (41°F) [RH = 55%]
Pressure (altimeter): 30.03 inches Hg (1017.0 mb)
Winds: from the NE (50 degrees) at 6 MPH (5 knots; 2.6 m/s)
Visibility: 2.49 miles (4.01 km)
Ceiling: at least 12,000 feet AGL
Clouds: sky clear below 12,000 feet AGL
Weather: HZ  (haze)

METAR text: OPKC 200125Z 05005KT 4000 HZ NSC 14/05 Q1016 NOSIG
Conditions at: OPKC (KARACHI INTL ARP, PK) observed 0125 UTC 20 January 2019
Temperature: 14.0°C (57°F)
Dewpoint: 5.0°C (41°F) [RH = 55%]
Pressure (altimeter): 30.00 inches Hg (1016.0 mb)
Winds: from the NE (50 degrees) at 6 MPH (5 knots; 2.6 m/s)
Visibility: 2.49 miles (4.01 km)
Ceiling: at least 12,000 feet AGL
Clouds: sky clear below 12,000 feet AGL
Weather: HZ  (haze)

METAR text: OPKC 200055Z 05005KT 4000 HZ NSC 14/05 Q1015 NOSIG
Conditions at: OPKC (KARACHI INTL ARP, PK) observed 0055 UTC 20 January 2019
Temperature: 14.0°C (57°F)
Dewpoint: 5.0°C (41°F) [RH = 55%]
Pressure (altimeter): 29.97 inches Hg (1015.0 mb)
Winds: from the NE (50 degrees) at 6 MPH (5 knots; 2.6 m/s)
Visibility: 2.49 miles (4.01 km)
Ceiling: at least 12,000 feet AGL
Clouds: sky clear below 12,000 feet AGL
Weather: HZ  (haze)

METAR text: OPKC 200025Z 05005KT 4000 HZ NSC 14/05 Q1016 NOSIG
Conditions at: OPKC (KARACHI INTL ARP, PK) observed 0025 UTC 20 January 2019
Temperature: 14.0°C (57°F)
Dewpoint: 5.0°C (41°F) [RH = 55%]
Pressure (altimeter): 30.00 inches Hg (1016.0 mb)
Winds: from the NE (50 degrees) at 6 MPH (5 knots; 2.6 m/s)
Visibility: 2.49 miles (4.01 km)
Ceiling: at least 12,000 feet AGL
Clouds: sky clear below 12,000 feet AGL
Weather: HZ  (haze)

METAR text: OPKC 192355Z 07004KT 4000 HZ NSC 15/06 Q1016 NOSIG
Conditions at: OPKC (KARACHI INTL ARP, PK) observed 2355 UTC 19 January 2019
Temperature: 15.0°C (59°F)
Dewpoint: 6.0°C (43°F) [RH = 55%]
Pressure (altimeter): 30.00 inches Hg (1016.0 mb)
Winds: from the ENE (70 degrees) at 5 MPH (4 knots; 2.1 m/s)
Visibility: 2.49 miles (4.01 km)
Ceiling: at least 12,000 feet AGL
Clouds: sky clear below 12,000 feet AGL
Weather: HZ  (haze)

METAR text: OPKC 192325Z 05005KT 4000 HZ NSC 16/05 Q1016 NOSIG
Conditions at: OPKC (KARACHI INTL ARP, PK) observed 2325 UTC 19 January 2019
Temperature: 16.0°C (61°F)
Dewpoint: 5.0°C (41°F) [RH = 48%]
Pressure (altimeter): 30.00 inches Hg (1016.0 mb)
Winds: from the NE (50 degrees) at 6 MPH (5 knots; 2.6 m/s)
Visibility: 2.49 miles (4.01 km)
Ceiling: at least 12,000 feet AGL
Clouds: sky clear below 12,000 feet AGL
Weather: HZ  (haze)

METAR text: OPKC 192250Z 04004KT 4000 HZ NSC 16/05 Q1016 NOSIG
Conditions at: OPKC (KARACHI INTL ARP, PK) observed 2250 UTC 19 January 2019
Temperature: 16.0°C (61°F)
Dewpoint: 5.0°C (41°F) [RH = 48%]
Pressure (altimeter): 30.00 inches Hg (1016.0 mb)
Winds: from the NE (40 degrees) at 5 MPH (4 knots; 2.1 m/s)
Visibility: 2.49 miles (4.01 km)
Ceiling: at least 12,000 feet AGL
Clouds: sky clear below 12,000 feet AGL
Weather: HZ  (haze)

METAR text: OPKC 192225Z 03004KT 4000 HZ NSC 16/05 Q1016 NOSIG
Conditions at: OPKC (KARACHI INTL ARP, PK) observed 2225 UTC 19 January 2019
Temperature: 16.0°C (61°F)
Dewpoint: 5.0°C (41°F) [RH = 48%]
Pressure (altimeter): 30.00 inches Hg (1016.0 mb)
Winds: from the NNE (30 degrees) at 5 MPH (4 knots; 2.1 m/s)
Visibility: 2.49 miles (4.01 km)
Ceiling: at least 12,000 feet AGL
Clouds: sky clear below 12,000 feet AGL
Weather: HZ  (haze)

METAR text: OPKC 192158Z 00000KT 4000 HZ NSC 16/05 Q1016 NOSIG
Conditions at: OPKC (KARACHI INTL ARP, PK) observed 2158 UTC 19 January 2019
Temperature: 16.0°C (61°F)
Dewpoint: 5.0°C (41°F) [RH = 48%]
Pressure (altimeter): 30.00 inches Hg (1016.0 mb)
Winds: calm
Visibility: 2.49 miles (4.01 km)
Ceiling: at least 12,000 feet AGL
Clouds: sky clear below 12,000 feet AGL
Weather: HZ  (haze)

METAR text: OPKC 192120Z 00000KT 4000 HZ NSC 16/05 Q1016 NOSIG
Conditions at: OPKC (KARACHI INTL ARP, PK) observed 2120 UTC 19 January 2019
Temperature: 16.0°C (61°F)
Dewpoint: 5.0°C (41°F) [RH = 48%]
Pressure (altimeter): 30.00 inches Hg (1016.0 mb)
Winds: calm
Visibility: 2.49 miles (4.01 km)
Ceiling: at least 12,000 feet AGL
Clouds: sky clear below 12,000 feet AGL
Weather: HZ  (haze)

METAR text: OPKC 192050Z 00000KT 4000 HZ NSC 16/06 Q1016 NOSIG
Conditions at: OPKC (KARACHI INTL ARP, PK) observed 2050 UTC 19 January 2019
Temperature: 16.0°C (61°F)
Dewpoint: 6.0°C (43°F) [RH = 51%]
Pressure (altimeter): 30.00 inches Hg (1016.0 mb)
Winds: calm
Visibility: 2.49 miles (4.01 km)
Ceiling: at least 12,000 feet AGL
Clouds: sky clear below 12,000 feet AGL
Weather: HZ  (haze)

METAR text: OPKC 192026Z 03003KT 4000 HZ NSC 16/06 Q1016 NOSIG
Conditions at: OPKC (KARACHI INTL ARP, PK) observed 2026 UTC 19 January 2019
Temperature: 16.0°C (61°F)
Dewpoint: 6.0°C (43°F) [RH = 51%]
Pressure (altimeter): 30.00 inches Hg (1016.0 mb)
Winds: from the NNE (30 degrees) at 3 MPH (3 knots; 1.5 m/s)
Visibility: 2.49 miles (4.01 km)
Ceiling: at least 12,000 feet AGL
Clouds: sky clear below 12,000 feet AGL
Weather: HZ  (haze)

METAR text: OPKC 191952Z 05003KT 4000 HZ NSC 17/06 Q1016 NOSIG
Conditions at: OPKC (KARACHI INTL ARP, PK) observed 1952 UTC 19 January 2019
Temperature: 17.0°C (63°F)
Dewpoint: 6.0°C (43°F) [RH = 48%]
Pressure (altimeter): 30.00 inches Hg (1016.0 mb)
Winds: from the NE (50 degrees) at 3 MPH (3 knots; 1.5 m/s)
Visibility: 2.49 miles (4.01 km)
Ceiling: at least 12,000 feet AGL
Clouds: sky clear below 12,000 feet AGL
Weather: HZ  (haze)

METAR text: OPKC 191920Z 04003KT 4000 HZ NSC 17/06 Q1016 NOSIG
Conditions at: OPKC (KARACHI INTL ARP, PK) observed 1920 UTC 19 January 2019
Temperature: 17.0°C (63°F)
Dewpoint: 6.0°C (43°F) [RH = 48%]
Pressure (altimeter): 30.00 inches Hg (1016.0 mb)
Winds: from the NE (40 degrees) at 3 MPH (3 knots; 1.5 m/s)
Visibility: 2.49 miles (4.01 km)
Ceiling: at least 12,000 feet AGL
Clouds: sky clear below 12,000 feet AGL
Weather: HZ  (haze)

METAR text: OPKC 191855Z 06007KT 4000 HZ NSC 18/07 Q1016 NOSIG
Conditions at: OPKC (KARACHI INTL ARP, PK) observed 1855 UTC 19 January 2019
Temperature: 18.0°C (64°F)
Dewpoint: 7.0°C (45°F) [RH = 49%]
Pressure (altimeter): 30.00 inches Hg (1016.0 mb)
Winds: from the ENE (60 degrees) at 8 MPH (7 knots; 3.6 m/s)
Visibility: 2.49 miles (4.01 km)
Ceiling: at least 12,000 feet AGL
Clouds: sky clear below 12,000 feet AGL
Weather: HZ  (haze)

METAR text: OPKC 191825Z 07007KT 4000 HZ NSC 18/07 Q1017 NOSIG
Conditions at: OPKC (KARACHI INTL ARP, PK) observed 1825 UTC 19 January 2019
Temperature: 18.0°C (64°F)
Dewpoint: 7.0°C (45°F) [RH = 49%]
Pressure (altimeter): 30.03 inches Hg (1017.0 mb)
Winds: from the ENE (70 degrees) at 8 MPH (7 knots; 3.6 m/s)
Visibility: 2.49 miles (4.01 km)
Ceiling: at least 12,000 feet AGL
Clouds: sky clear below 12,000 feet AGL
Weather: HZ  (haze)

METAR text: OPKC 191755Z 07006KT 4000 HZ NSC 18/09 Q1017 NOSIG
Conditions at: OPKC (KARACHI INTL ARP, PK) observed 1755 UTC 19 January 2019
Temperature: 18.0°C (64°F)
Dewpoint: 9.0°C (48°F) [RH = 56%]
Pressure (altimeter): 30.03 inches Hg (1017.0 mb)
Winds: from the ENE (70 degrees) at 7 MPH (6 knots; 3.1 m/s)
Visibility: 2.49 miles (4.01 km)
Ceiling: at least 12,000 feet AGL
Clouds: sky clear below 12,000 feet AGL
Weather: HZ  (haze)

METAR text: OPKC 191725Z 05006KT 4000 HZ NSC 19/11 Q1017 NOSIG
Conditions at: OPKC (KARACHI INTL ARP, PK) observed 1725 UTC 19 January 2019
Temperature: 19.0°C (66°F)
Dewpoint: 11.0°C (52°F) [RH = 60%]
Pressure (altimeter): 30.03 inches Hg (1017.0 mb)
Winds: from the NE (50 degrees) at 7 MPH (6 knots; 3.1 m/s)
Visibility: 2.49 miles (4.01 km)
Ceiling: at least 12,000 feet AGL
Clouds: sky clear below 12,000 feet AGL
Weather: HZ  (haze)

METAR text: OPKC 191655Z 00000KT 4000 HZ NSC 20/14 Q1017 NOSIG
Conditions at: OPKC (KARACHI INTL ARP, PK) observed 1655 UTC 19 January 2019
Temperature: 20.0°C (68°F)
Dewpoint: 14.0°C (57°F) [RH = 68%]
Pressure (altimeter): 30.03 inches Hg (1017.0 mb)
Winds: calm
Visibility: 2.49 miles (4.01 km)
Ceiling: at least 12,000 feet AGL
Clouds: sky clear below 12,000 feet AGL
Weather: HZ  (haze)

METAR text: OPKC 191628Z 00000KT 4000 HZ NSC 20/14 Q1017 NOSIG
Conditions at: OPKC (KARACHI INTL ARP, PK) observed 1628 UTC 19 January 2019
Temperature: 20.0°C (68°F)
Dewpoint: 14.0°C (57°F) [RH = 68%]
Pressure (altimeter): 30.03 inches Hg (1017.0 mb)
Winds: calm
Visibility: 2.49 miles (4.01 km)
Ceiling: at least 12,000 feet AGL
Clouds: sky clear below 12,000 feet AGL
Weather: HZ  (haze)

METAR text: OPKC 191555Z 00000KT 4000 HZ NSC 21/14 Q1016 NOSIG
Conditions at: OPKC (KARACHI INTL ARP, PK) observed 1555 UTC 19 January 2019
Temperature: 21.0°C (70°F)
Dewpoint: 14.0°C (57°F) [RH = 64%]
Pressure (altimeter): 30.00 inches Hg (1016.0 mb)
Winds: calm
Visibility: 2.49 miles (4.01 km)
Ceiling: at least 12,000 feet AGL
Clouds: sky clear below 12,000 feet AGL
Weather: HZ  (haze)

METAR text: OPKC 191455Z 00000KT 5000 HZ NSC 21/14 Q1016 NOSIG
Conditions at: OPKC (KARACHI INTL ARP, PK) observed 1455 UTC 19 January 2019
Temperature: 21.0°C (70°F)
Dewpoint: 14.0°C (57°F) [RH = 64%]
Pressure (altimeter): 30.00 inches Hg (1016.0 mb)
Winds: calm
Visibility: 3 miles ( 5 km)
Ceiling: at least 12,000 feet AGL
Clouds: sky clear below 12,000 feet AGL
Weather: HZ  (haze)

METAR text: OPKC 191344Z 22004KT 4000 HZ NSC 22/14 Q1015 NOSIG
Conditions at: OPKC (KARACHI INTL ARP, PK) observed 1344 UTC 19 January 2019
Temperature: 22.0°C (72°F)
Dewpoint: 14.0°C (57°F) [RH = 60%]
Pressure (altimeter): 29.97 inches Hg (1015.0 mb)
Winds: from the SW (220 degrees) at 5 MPH (4 knots; 2.1 m/s)
Visibility: 2.49 miles (4.01 km)
Ceiling: at least 12,000 feet AGL
Clouds: sky clear below 12,000 feet AGL
Weather: HZ  (haze)

METAR text: OPKC 191255Z 22006KT 3000 HZ NSC 24/13 Q1015 NOSIG
Conditions at: OPKC (KARACHI INTL ARP, PK) observed 1255 UTC 19 January 2019
Temperature: 24.0°C (75°F)
Dewpoint: 13.0°C (55°F) [RH = 50%]
Pressure (altimeter): 29.97 inches Hg (1015.0 mb)
Winds: from the SW (220 degrees) at 7 MPH (6 knots; 3.1 m/s)
Visibility: 1.86 miles (2.99 km)
Ceiling: at least 12,000 feet AGL
Clouds: sky clear below 12,000 feet AGL
Weather: HZ  (haze)

Forecast for: OPKC (KARACHI INTL ARP, PK)
Text: TAF OPKC 202130Z 2100/2109 26008G18KT 6000 SCT030 BKN100
Forecast period: 0000 to 0900 UTC 21 January 2019
Forecast type: FROM: standard forecast or significant change
Winds: from the W (260 degrees) at 9 MPH (8 knots; 4.1 m/s)
gusting to 21 MPH (18 knots; 9.3 m/s)
Visibility: 4 miles (6 km)
Ceiling: 10000 feet AGL
Clouds: scattered clouds at 3000 feet AGL
broken clouds at 10000 feet AGL
Weather: no significant weather forecast for this period
Text: TEMPO 2100/2106 03015G25KT 2000 -TSRA FEW025CB SCT030 BKN080
Forecast period: 0000 to 0600 UTC 21 January 2019
Forecast type: TEMPORARY: The following changes expected for less than half the time period
Winds: from the NNE (30 degrees) at 17 MPH (15 knots; 7.7 m/s)
gusting to 29 MPH (25 knots; 12.9 m/s)
Visibility: 1.24 miles (2.00 km)
Ceiling: 8000 feet AGL
Clouds: few clouds at 2500 feet AGL
scattered clouds at 3000 feet AGL
broken clouds at 8000 feet AGL
Weather: -TSRA  (light rain associated with thunderstorm(s))